createdAt,value
2023-01-20T00:01:39.233Z,14.32
2023-01-20T00:04:07.749Z,11.40
2023-01-20T00:06:36.126Z,15.15
2023-01-20T00:09:05.791Z,17.40
2023-01-20T00:11:34.297Z,11.35
2023-01-20T00:14:04.023Z,8.38
2023-01-20T00:16:32.530Z,10.35
2023-01-20T00:19:00.552Z,10.25
2023-01-20T00:21:28.810Z,6.75
2023-01-20T00:23:57.002Z,6.93
2023-01-20T00:26:26.114Z,10.40
2023-01-20T00:28:56.085Z,8.93
2023-01-20T00:31:26.668Z,10.05
2023-01-20T00:33:57.000Z,8.52
2023-01-20T00:36:25.980Z,7.00
2023-01-20T00:38:53.871Z,8.10
2023-01-20T00:41:21.625Z,8.90
2023-01-20T00:43:49.359Z,7.57
2023-01-20T00:46:17.479Z,7.38
2023-01-20T00:48:46.661Z,14.52
2023-01-20T00:51:14.629Z,7.47
2023-01-20T00:53:42.442Z,6.70
2023-01-20T00:56:10.220Z,14.45
2023-01-20T00:58:37.980Z,17.35
2023-01-20T01:01:06.144Z,10.93
2023-01-20T01:03:33.937Z,9.20
2023-01-20T01:06:10.961Z,10.07
2023-01-20T01:08:39.062Z,8.02
2023-01-20T01:11:07.513Z,9.90
2023-01-20T01:13:36.009Z,8.20
2023-01-20T01:16:04.232Z,11.70
2023-01-20T01:18:32.063Z,7.05
2023-01-20T01:20:59.828Z,8.20
2023-01-20T01:23:28.962Z,8.65
2023-01-20T01:25:57.236Z,7.82
2023-01-20T01:28:25.016Z,8.75
2023-01-20T01:30:52.793Z,9.90
2023-01-20T01:33:20.600Z,8.77
2023-01-20T01:35:56.108Z,7.75
2023-01-20T01:38:24.161Z,6.80
2023-01-20T01:40:54.789Z,10.20
2023-01-20T01:43:25.120Z,12.13
2023-01-20T01:45:52.991Z,6.60
2023-01-20T01:48:24.048Z,11.13
2023-01-20T01:50:55.637Z,6.93
2023-01-20T01:53:23.873Z,8.15
2023-01-20T01:55:57.476Z,10.18
2023-01-20T02:00:55.349Z,12.98
2023-01-20T02:03:24.027Z,9.23
2023-01-20T02:05:54.028Z,8.07
2023-01-20T02:08:22.078Z,15.45
2023-01-20T02:10:49.829Z,12.77
2023-01-20T02:13:19.057Z,8.55
2023-01-20T02:15:55.422Z,7.55
2023-01-20T02:18:36.655Z,8.15
2023-01-20T02:21:42.362Z,12.05
2023-01-20T02:24:40.480Z,10.55
2023-01-20T02:27:13.207Z,4.78
2023-01-20T02:30:09.754Z,6.15
2023-01-20T02:32:48.608Z,5.90
2023-01-20T02:35:25.739Z,13.77
2023-01-20T02:38:01.269Z,12.48
2023-01-20T02:40:34.512Z,7.47
2023-01-20T02:43:10.859Z,15.27
2023-01-20T02:45:47.350Z,11.80
2023-01-20T02:48:23.524Z,9.52
2023-01-20T02:50:59.959Z,9.45
2023-01-20T02:53:33.807Z,8.68
2023-01-20T02:56:01.686Z,10.02
2023-01-20T02:58:38.060Z,12.00
2023-01-20T03:01:12.737Z,13.57
2023-01-20T03:03:47.377Z,11.80
2023-01-20T03:06:22.594Z,10.27
2023-01-20T03:08:53.569Z,13.35
2023-01-20T03:11:21.532Z,6.82
2023-01-20T03:13:54.978Z,13.60
2023-01-20T03:16:24.686Z,8.20
2023-01-20T03:18:53.858Z,5.95
2023-01-20T03:21:22.286Z,7.00
2023-01-20T03:23:52.513Z,8.65
2023-01-20T03:26:22.853Z,7.13
2023-01-20T03:29:07.819Z,6.28
2023-01-20T03:31:39.261Z,9.20
2023-01-20T03:34:12.661Z,5.60
2023-01-20T03:36:42.325Z,6.55
2023-01-20T03:39:10.342Z,11.25
2023-01-20T03:41:47.569Z,13.15
2023-01-20T03:44:24.474Z,9.60
2023-01-20T03:46:59.171Z,5.30
2023-01-20T03:49:34.994Z,6.20
2023-01-20T03:52:06.158Z,4.60
2023-01-20T03:54:43.961Z,4.57
2023-01-20T03:57:15.799Z,4.72
2023-01-20T03:59:46.937Z,7.60
2023-01-20T04:02:14.797Z,4.57
2023-01-20T04:04:46.021Z,5.63
2023-01-20T04:07:18.201Z,3.22
2023-01-20T04:09:51.242Z,3.97
2023-01-20T04:12:19.238Z,2.42
2023-01-20T04:14:46.977Z,3.53
2023-01-20T04:17:14.983Z,4.13
2023-01-20T04:19:44.137Z,4.93
2023-01-20T04:22:18.991Z,3.58
2023-01-20T04:24:53.432Z,3.75
2023-01-20T04:27:21.211Z,3.17
2023-01-20T04:29:48.969Z,4.32
2023-01-20T04:32:16.668Z,3.95
2023-01-20T04:34:45.760Z,4.75
2023-01-20T04:37:13.495Z,5.38
2023-01-20T04:39:41.297Z,8.43
2023-01-20T04:42:10.516Z,2.28
2023-01-20T04:44:38.323Z,4.00
2023-01-20T04:47:06.551Z,7.57
2023-01-20T04:49:35.436Z,9.13
2023-01-20T04:52:04.879Z,2.75
2023-01-20T04:54:32.787Z,6.55
2023-01-20T04:57:00.540Z,5.82
2023-01-20T04:59:28.297Z,6.57
2023-01-20T05:01:56.273Z,5.20
2023-01-20T05:04:24.026Z,6.40
2023-01-20T05:06:51.788Z,4.75
2023-01-20T05:09:20.951Z,4.50
2023-01-20T05:11:48.729Z,7.25
2023-01-20T05:14:16.435Z,2.28
2023-01-20T05:16:44.225Z,4.75
2023-01-20T05:19:12.720Z,6.35
2023-01-20T05:21:42.518Z,2.58
2023-01-20T05:24:10.709Z,2.85
2023-01-20T05:26:39.855Z,3.40
2023-01-20T05:29:07.659Z,4.82
2023-01-20T05:31:37.538Z,3.58
2023-01-20T05:34:06.009Z,3.78
2023-01-20T05:36:33.813Z,6.53
2023-01-20T05:39:01.606Z,3.67
2023-01-20T05:41:29.448Z,4.85
2023-01-20T05:43:58.567Z,3.03
2023-01-20T05:46:26.388Z,3.95
2023-01-20T05:48:54.091Z,3.30
2023-01-20T05:51:21.926Z,8.93
2023-01-20T05:53:49.662Z,6.78
2023-01-20T05:56:17.442Z,3.92
2023-01-20T05:58:45.131Z,3.72
2023-01-20T06:01:15.831Z,5.55
2023-01-20T06:03:44.198Z,8.23
2023-01-20T06:06:15.741Z,3.03
2023-01-20T06:08:43.861Z,4.13
2023-01-20T06:11:12.061Z,5.72
2023-01-20T06:13:40.327Z,3.42
2023-01-20T06:16:08.783Z,4.57
2023-01-20T06:18:37.954Z,4.55
2023-01-20T06:21:06.207Z,5.95
2023-01-20T06:23:34.063Z,4.15
2023-01-20T06:26:03.597Z,3.33
2023-01-20T06:28:32.950Z,3.97
2023-01-20T06:31:02.825Z,4.18
2023-01-20T06:33:30.801Z,6.97
2023-01-20T06:36:00.735Z,7.93
2023-01-20T06:38:30.999Z,5.47
2023-01-20T06:40:59.730Z,5.05
2023-01-20T06:43:29.673Z,9.57
2023-01-20T06:46:01.148Z,9.05
2023-01-20T06:48:29.837Z,3.88
2023-01-20T06:51:03.338Z,4.25
2023-01-20T06:56:00.594Z,4.88
2023-01-20T06:58:30.269Z,4.68
2023-01-20T07:00:59.314Z,3.25
2023-01-20T07:03:27.178Z,6.22
2023-01-20T07:05:58.502Z,4.18
2023-01-20T07:08:27.767Z,5.00
2023-01-20T07:10:55.522Z,3.03
2023-01-20T07:13:23.342Z,7.47
2023-01-20T07:15:51.095Z,6.72
2023-01-20T07:18:18.909Z,5.18
2023-01-20T07:20:46.713Z,2.08
2023-01-20T07:23:14.861Z,3.03
2023-01-20T07:25:43.983Z,9.93
2023-01-20T07:28:11.679Z,4.10
2023-01-20T07:30:39.560Z,3.28
2023-01-20T07:33:07.286Z,4.85
2023-01-20T07:35:35.476Z,3.83
2023-01-20T07:38:04.465Z,4.05
2023-01-20T07:40:32.273Z,4.22
2023-01-20T07:43:04.723Z,3.67
2023-01-20T07:45:32.523Z,6.07
2023-01-20T07:48:01.838Z,3.85
2023-01-20T07:50:29.559Z,5.55
2023-01-20T07:52:57.340Z,3.63
2023-01-20T07:55:25.295Z,6.35
2023-01-20T07:57:53.072Z,2.78
2023-01-20T08:00:22.783Z,3.88
2023-01-20T08:02:50.549Z,4.65
2023-01-20T08:05:18.575Z,4.35
2023-01-20T08:07:46.369Z,3.13
2023-01-20T08:10:14.129Z,12.60
2023-01-20T08:12:41.965Z,9.70
2023-01-20T08:15:11.182Z,4.05
2023-01-20T08:17:40.348Z,5.78
2023-01-20T08:20:09.686Z,4.78
2023-01-20T08:22:37.551Z,4.47
2023-01-20T08:25:05.876Z,11.35
2023-01-20T08:27:33.693Z,11.38
2023-01-20T08:30:01.461Z,8.05
2023-01-20T08:32:30.631Z,5.65
2023-01-20T08:35:00.153Z,3.95
2023-01-20T08:37:28.001Z,5.20
2023-01-20T08:39:55.746Z,5.10
2023-01-20T08:42:23.438Z,4.93
2023-01-20T08:44:53.313Z,7.68
2023-01-20T08:47:21.146Z,5.63
2023-01-20T08:49:48.861Z,4.40
2023-01-20T08:52:18.002Z,6.90
2023-01-20T08:54:45.767Z,4.03
2023-01-20T08:57:14.963Z,4.50
2023-01-20T08:59:42.720Z,5.32
2023-01-20T09:02:11.171Z,5.60
2023-01-20T09:04:39.131Z,7.43
2023-01-20T09:07:07.766Z,9.15
2023-01-20T09:09:36.855Z,8.02
2023-01-20T09:12:05.397Z,7.80
2023-01-20T09:14:33.223Z,9.38
2023-01-20T09:17:02.676Z,5.13
2023-01-20T09:19:30.595Z,6.63
2023-01-20T09:21:58.615Z,7.70
2023-01-20T09:24:26.390Z,3.58
2023-01-20T09:26:56.838Z,5.40
2023-01-20T09:29:25.630Z,6.68
2023-01-20T09:31:58.213Z,10.18
2023-01-20T09:34:27.824Z,5.28
2023-01-20T09:36:57.906Z,6.68
2023-01-20T09:39:43.754Z,10.52
2023-01-20T09:42:48.048Z,6.30
2023-01-20T09:45:24.940Z,4.57
2023-01-20T09:48:02.230Z,4.88
2023-01-20T09:50:55.850Z,5.38
2023-01-20T09:53:40.406Z,5.28
2023-01-20T09:56:13.579Z,4.88
2023-01-20T09:58:49.677Z,4.60
2023-01-20T10:01:24.451Z,4.40
2023-01-20T10:04:00.504Z,5.30
2023-01-20T10:06:36.457Z,5.20
2023-01-20T10:09:07.646Z,4.13
2023-01-20T10:11:50.759Z,6.82
2023-01-20T10:14:26.171Z,3.42
2023-01-20T10:17:05.071Z,3.45
2023-01-20T10:19:42.645Z,7.85
2023-01-20T10:22:17.904Z,7.97
2023-01-20T10:24:55.439Z,6.97
2023-01-20T10:27:26.312Z,6.22
2023-01-20T10:30:00.165Z,7.03
2023-01-20T10:32:36.682Z,6.07
2023-01-20T10:35:15.616Z,5.32
2023-01-20T10:37:43.872Z,4.85
2023-01-20T10:40:20.666Z,3.78
2023-01-20T10:42:50.331Z,9.20
2023-01-20T10:45:24.366Z,5.78
2023-01-20T10:48:04.801Z,3.92
2023-01-20T10:50:46.945Z,6.38
2023-01-20T10:53:35.689Z,5.18
2023-01-20T10:56:14.132Z,4.13
2023-01-20T10:58:45.363Z,8.40
2023-01-20T11:01:19.012Z,6.55
2023-01-20T11:03:49.599Z,7.70
2023-01-20T11:06:21.431Z,15.57
2023-01-20T11:08:49.910Z,13.77
2023-01-20T11:11:21.902Z,12.90
2023-01-20T11:13:51.694Z,19.02
2023-01-20T11:16:25.006Z,20.70
2023-01-20T11:18:59.253Z,6.35
2023-01-20T11:21:29.210Z,8.02
2023-01-20T11:23:58.199Z,8.55
2023-01-20T11:26:28.777Z,11.15
2023-01-20T11:28:58.868Z,10.13
2023-01-20T11:31:39.526Z,8.35
2023-01-20T11:34:22.325Z,8.25
2023-01-20T11:36:50.590Z,8.45
2023-01-20T11:39:26.895Z,7.45
2023-01-20T11:42:13.149Z,10.50
2023-01-20T11:44:44.622Z,8.40
2023-01-20T11:47:36.298Z,6.53
2023-01-20T11:50:32.592Z,19.40
2023-01-20T11:53:14.264Z,10.15
2023-01-20T11:55:49.759Z,10.15
2023-01-20T11:58:19.507Z,4.82
2023-01-20T12:00:47.664Z,17.25
2023-01-20T12:03:35.751Z,7.05
2023-01-20T12:06:12.497Z,7.20
2023-01-20T12:08:48.361Z,5.68
2023-01-20T12:11:20.400Z,4.75
2023-01-20T12:14:34.423Z,6.05
2023-01-20T12:17:14.428Z,5.75
2023-01-20T12:19:56.697Z,5.28
2023-01-20T12:22:30.797Z,8.05
2023-01-20T12:25:10.731Z,6.20
2023-01-20T12:27:46.481Z,4.85
2023-01-20T12:30:28.689Z,5.72
2023-01-20T12:32:56.805Z,8.45
2023-01-20T12:35:30.116Z,7.90
2023-01-20T12:38:02.932Z,8.77
2023-01-20T12:40:40.701Z,6.68
2023-01-20T12:43:26.915Z,6.70
2023-01-20T12:46:21.493Z,9.57
2023-01-20T12:49:01.104Z,5.65
2023-01-20T12:51:43.894Z,6.38
2023-01-20T12:54:47.510Z,7.22
2023-01-20T12:57:24.367Z,4.60
2023-01-20T13:00:09.247Z,8.27
2023-01-20T13:03:16.151Z,6.93
2023-01-20T13:06:01.214Z,7.55
2023-01-20T13:08:42.181Z,6.60
2023-01-20T13:11:20.747Z,9.90
2023-01-20T13:14:01.895Z,8.20
2023-01-20T13:16:37.220Z,10.35
2023-01-20T13:19:14.686Z,7.18
2023-01-20T13:21:42.629Z,9.75
2023-01-20T13:24:19.536Z,3.90
2023-01-20T13:26:49.363Z,5.38
2023-01-20T13:29:41.227Z,7.82
2023-01-20T13:32:28.159Z,6.90
2023-01-20T13:34:56.838Z,4.30
2023-01-20T13:37:36.631Z,5.90
2023-01-20T13:40:39.562Z,9.95
2023-01-20T13:43:36.011Z,6.72
2023-01-20T13:46:37.341Z,9.07
2023-01-20T13:49:23.391Z,5.88
2023-01-20T13:51:51.412Z,4.07
2023-01-20T13:54:38.702Z,5.55
2023-01-20T13:57:35.999Z,8.63
2023-01-20T14:00:13.819Z,7.30
2023-01-20T14:02:41.569Z,4.35
2023-01-20T14:05:34.432Z,6.68
2023-01-20T14:08:03.490Z,5.65
2023-01-20T14:10:32.354Z,7.18
2023-01-20T14:13:01.549Z,4.22
2023-01-20T14:15:37.457Z,5.57
2023-01-20T14:18:05.968Z,5.75
2023-01-20T14:20:33.773Z,7.22
2023-01-20T14:23:35.965Z,6.70
2023-01-20T14:26:10.740Z,6.78
2023-01-20T14:28:46.185Z,7.38
2023-01-20T14:31:33.864Z,5.22
2023-01-20T14:34:04.971Z,9.45
2023-01-20T14:36:34.119Z,4.25
2023-01-20T14:39:04.375Z,7.20
2023-01-20T14:41:45.877Z,3.70
2023-01-20T14:44:19.797Z,6.60
2023-01-20T14:46:50.220Z,4.22
2023-01-20T14:49:20.399Z,4.50
2023-01-20T14:51:51.005Z,10.60
2023-01-20T14:54:36.536Z,4.78
2023-01-20T14:57:27.610Z,4.25
2023-01-20T15:00:20.456Z,7.53
2023-01-20T15:03:01.254Z,10.70
2023-01-20T15:05:39.424Z,8.52
2023-01-20T15:08:26.749Z,4.90
2023-01-20T15:11:31.230Z,3.97
2023-01-20T15:14:12.907Z,4.60
2023-01-20T15:16:50.264Z,2.72
2023-01-20T15:19:33.483Z,5.70
2023-01-20T15:22:23.007Z,4.70
2023-01-20T15:24:51.502Z,3.70
2023-01-20T15:27:28.787Z,4.15
2023-01-20T15:30:15.867Z,3.83
2023-01-20T15:32:45.173Z,6.30
2023-01-20T15:35:14.511Z,6.22
2023-01-20T15:37:43.118Z,9.32
2023-01-20T15:40:16.575Z,7.15
2023-01-20T15:45:15.469Z,7.07
2023-01-20T15:47:45.877Z,6.72
2023-01-20T15:50:16.675Z,5.88
2023-01-20T15:52:44.810Z,8.90
2023-01-20T15:55:14.226Z,7.68
2023-01-20T15:57:42.451Z,4.53
2023-01-20T16:00:17.928Z,10.02
2023-01-20T16:02:47.301Z,8.23
2023-01-20T16:05:17.556Z,5.28
2023-01-20T16:07:47.775Z,5.55
2023-01-20T16:10:18.120Z,8.68
2023-01-20T16:12:46.806Z,4.30
2023-01-20T16:15:16.544Z,9.70
2023-01-20T16:17:44.675Z,6.78
2023-01-20T16:20:25.148Z,6.88
2023-01-20T16:22:53.127Z,7.00
2023-01-20T16:25:22.029Z,5.35
2023-01-20T16:27:49.974Z,7.28
2023-01-20T16:30:20.228Z,6.28
2023-01-20T16:32:48.788Z,16.15
2023-01-20T16:35:18.084Z,15.27
2023-01-20T16:37:48.805Z,20.33
2023-01-20T16:40:18.774Z,19.98
2023-01-20T16:42:47.237Z,21.05
2023-01-20T16:45:27.264Z,36.58
2023-01-20T16:47:55.799Z,37.42
2023-01-20T16:50:23.678Z,29.88
2023-01-20T16:52:52.762Z,37.92
2023-01-20T16:55:21.990Z,32.55
2023-01-20T16:57:49.792Z,28.02
2023-01-20T17:00:19.433Z,30.40
2023-01-20T17:02:51.260Z,33.67
2023-01-20T17:05:22.508Z,36.35
2023-01-20T17:07:50.645Z,33.22
2023-01-20T17:10:21.497Z,31.13
2023-01-20T17:12:49.382Z,28.48
2023-01-20T17:15:17.157Z,25.98
2023-01-20T17:17:48.342Z,32.80
2023-01-20T17:20:17.567Z,27.17
2023-01-20T17:22:45.698Z,25.45
2023-01-20T17:25:16.799Z,28.75
2023-01-20T17:27:46.787Z,24.75
2023-01-20T17:30:16.098Z,30.13
2023-01-20T17:32:48.026Z,27.92
2023-01-20T17:35:16.160Z,43.63
2023-01-20T17:37:44.245Z,28.60
2023-01-20T17:40:13.152Z,32.78
2023-01-20T17:42:40.930Z,28.02
2023-01-20T17:45:11.111Z,39.72
2023-01-20T17:47:38.912Z,33.53
2023-01-20T17:50:06.911Z,30.58
2023-01-20T17:52:34.681Z,22.10
2023-01-20T17:55:04.705Z,18.52
2023-01-20T17:57:32.624Z,22.88
2023-01-20T18:00:00.330Z,17.17
2023-01-20T18:02:29.439Z,14.18
2023-01-20T18:04:57.194Z,14.90
2023-01-20T18:07:24.992Z,13.40
2023-01-20T18:09:52.833Z,21.02
2023-01-20T18:12:21.405Z,13.23
2023-01-20T18:14:49.164Z,14.88
2023-01-20T18:17:17.011Z,13.27
2023-01-20T18:19:47.266Z,16.48
2023-01-20T18:22:15.131Z,8.82
2023-01-20T18:24:42.997Z,6.25
2023-01-20T18:27:10.711Z,13.80
2023-01-20T18:29:38.445Z,10.60
2023-01-20T18:32:06.623Z,14.02
2023-01-20T18:34:34.417Z,11.60
2023-01-20T18:37:03.592Z,15.50
2023-01-20T18:39:31.423Z,11.20
2023-01-20T18:41:59.288Z,14.98
2023-01-20T18:44:27.055Z,15.30
2023-01-20T18:46:54.800Z,8.30
2023-01-20T18:49:22.671Z,10.73
2023-01-20T18:51:50.421Z,19.00
2023-01-20T18:54:21.936Z,11.32
2023-01-20T18:56:49.819Z,13.43
2023-01-20T18:59:17.559Z,15.68
2023-01-20T19:01:46.283Z,31.95
2023-01-20T19:04:14.355Z,46.47
2023-01-20T19:06:43.487Z,53.72
2023-01-20T19:09:12.131Z,85.13
2023-01-20T19:11:42.628Z,78.07
2023-01-20T19:14:13.502Z,79.82
2023-01-20T19:16:45.076Z,80.13
2023-01-20T19:19:13.236Z,72.80
2023-01-20T19:21:40.946Z,104.10
2023-01-20T19:24:10.869Z,83.78
2023-01-20T19:26:40.818Z,92.80
2023-01-20T19:29:13.264Z,85.78
2023-01-20T19:31:42.516Z,78.05
2023-01-20T19:34:10.497Z,66.18
2023-01-20T19:36:38.615Z,67.28
2023-01-20T19:39:06.744Z,52.08
2023-01-20T19:41:36.073Z,48.05
2023-01-20T19:44:07.808Z,42.30
2023-01-20T19:46:38.789Z,32.95
2023-01-20T19:49:07.042Z,33.97
2023-01-20T19:51:34.850Z,34.55
2023-01-20T19:54:03.285Z,30.95
2023-01-20T19:56:32.997Z,38.58
2023-01-20T19:59:01.687Z,31.35
2023-01-20T20:01:32.271Z,30.63
2023-01-20T20:04:05.476Z,21.90
2023-01-20T20:06:34.783Z,23.42
2023-01-20T20:09:05.675Z,19.13
2023-01-20T20:11:34.395Z,20.00
2023-01-20T20:14:04.113Z,20.83
2023-01-20T20:16:35.551Z,32.22
2023-01-20T20:19:03.632Z,25.80
2023-01-20T20:21:31.535Z,23.73
2023-01-20T20:24:01.281Z,25.38
2023-01-20T20:26:31.891Z,27.05
2023-01-20T20:29:00.872Z,40.67
2023-01-20T20:31:29.935Z,44.75
2023-01-20T20:34:00.233Z,46.00
2023-01-20T20:36:30.844Z,48.17
2023-01-20T20:38:59.303Z,60.50
2023-01-20T20:41:30.517Z,73.03
2023-01-20T20:43:59.193Z,86.55
2023-01-20T20:46:27.460Z,115.82
2023-01-20T20:48:55.922Z,106.82
2023-01-20T20:51:25.200Z,112.25
2023-01-20T20:53:55.598Z,86.60
2023-01-20T20:56:24.454Z,84.43
2023-01-20T20:59:01.561Z,65.93
2023-01-20T21:01:31.569Z,62.70
2023-01-20T21:04:00.473Z,59.80
2023-01-20T21:06:30.580Z,63.72
2023-01-20T21:08:59.286Z,61.92
2023-01-20T21:11:27.605Z,62.85
2023-01-20T21:13:55.585Z,59.95
2023-01-20T21:16:24.155Z,67.75
2023-01-20T21:18:53.670Z,69.80
2023-01-20T21:21:21.828Z,74.43
2023-01-20T21:23:52.427Z,76.75
2023-01-20T21:26:20.795Z,83.80
2023-01-20T21:28:50.022Z,77.85
2023-01-20T21:31:20.836Z,71.55
2023-01-20T21:33:53.409Z,58.72
2023-01-20T21:36:22.093Z,69.38
2023-01-20T21:38:51.956Z,55.80
2023-01-20T21:41:20.187Z,62.95
2023-01-20T21:44:06.760Z,51.65
2023-01-20T21:46:38.454Z,60.90
2023-01-20T21:49:24.672Z,69.47
2023-01-20T21:52:10.005Z,65.72
2023-01-20T21:54:40.548Z,56.10
2023-01-20T21:57:08.541Z,54.95
2023-01-20T21:59:36.341Z,47.47
2023-01-20T22:02:04.135Z,45.45
2023-01-20T22:04:32.710Z,57.50
2023-01-20T22:07:00.551Z,52.40
2023-01-20T22:09:28.256Z,53.85
2023-01-20T22:11:57.452Z,52.15
2023-01-20T22:14:25.254Z,51.20
2023-01-20T22:16:53.039Z,53.08
2023-01-20T22:19:20.816Z,66.35
2023-01-20T22:21:48.611Z,52.45
2023-01-20T22:24:16.693Z,44.90
2023-01-20T22:26:48.083Z,46.53
2023-01-20T22:29:17.955Z,53.05
2023-01-20T22:31:46.709Z,46.75
2023-01-20T22:34:14.474Z,53.92
2023-01-20T22:36:42.245Z,50.90
2023-01-20T22:39:12.196Z,50.38
2023-01-20T22:41:40.014Z,57.88
2023-01-20T22:44:07.940Z,46.38
2023-01-20T22:46:37.117Z,52.72
2023-01-20T22:49:04.922Z,43.28
2023-01-20T22:51:33.264Z,41.88
2023-01-20T22:54:02.366Z,42.85
2023-01-20T22:56:32.157Z,53.28
2023-01-20T22:59:01.030Z,49.70
2023-01-20T23:01:30.884Z,47.53
2023-01-20T23:04:01.978Z,45.75
2023-01-20T23:06:33.744Z,49.92
2023-01-20T23:09:01.884Z,49.45
2023-01-20T23:11:29.887Z,62.92
2023-01-20T23:13:58.223Z,44.88
2023-01-20T23:16:26.087Z,46.80
2023-01-20T23:18:53.841Z,39.13
2023-01-20T23:21:24.338Z,32.53
2023-01-20T23:23:54.547Z,29.83
2023-01-20T23:26:24.663Z,28.85
2023-01-20T23:28:53.546Z,42.45
2023-01-20T23:31:22.374Z,37.35
2023-01-20T23:33:50.712Z,35.92
2023-01-20T23:36:21.577Z,36.20
2023-01-20T23:38:50.772Z,33.45
2023-01-20T23:41:18.554Z,25.92
2023-01-20T23:43:46.268Z,29.48
2023-01-20T23:46:14.191Z,26.70
2023-01-20T23:48:41.981Z,30.13
2023-01-20T23:51:10.623Z,28.23
2023-01-20T23:53:40.317Z,23.15
2023-01-20T23:56:13.500Z,29.33
2023-01-20T23:58:42.029Z,41.45
